Blue Oak Ranch Reserve, California Weather observations

Data are for 10 minute period ending at time listed.
 Day   Time   Solar   Ave.   Ave.  Ave.  Vector  Max.   Baro.   Total    
  of    of     Rad.   Air    Rel.  Wind   Wind   Wind  Press.  Precip.   
Year   Day            Temp.  Hum.  Speed  Dir.   Gust                    
2026   (PST)  Kw/m2    F      %     mph   deg.    mph    mb.     in.     
-------------------------------------------------------------------------
 128   10:20   0.92   61.1    66    3.0   226     6.9   952.6    0.00 
 128   10:30   0.94   61.9    65    4.7   201     7.7   952.5    0.00 
 128   10:40   0.95   62.8    64    4.7   225     9.2   952.4    0.00 
 128   10:50   0.97   62.6    64    5.0   237     9.9   952.3    0.00 
 128   11:00   0.98   62.3    63    6.1   224    10.9   952.3    0.00 
 128   11:10   0.99   62.8    61    5.5   236    10.4   952.4    0.00 
 128   11:20   1.00   62.7    61    5.3   225    10.1   952.4    0.00 
 128   11:30   1.01   63.9    59    3.8   228     8.1   952.3    0.00 
 128   11:40   1.01   64.7    58    5.0   235     9.5   952.1    0.00 
 128   11:50   1.02   64.2    58    5.1   231     9.2   952.1    0.00 
 128   12:00   1.02   64.2    58    6.3   229    10.2   952.1    0.00 
 128   12:10   1.02   64.7    58    6.0   247    11.0   952.1    0.00 
 128   12:20   1.02   65.2    57    5.2   241    10.6   952.1    0.00 
 128   12:30   1.02   65.3    58    4.8   225     8.5   952.1    0.00 
 128   12:40   1.02   66.0    58    4.2   236     9.2   952.1    0.00 
 128   12:50   0.98   66.7    57    5.1   241     9.6   952.0    0.00 
 128   13:00   1.00   66.3    58    4.6   234     8.8   951.9    0.00 
 128   13:10   0.99   67.4    57    5.2   253    11.6   951.9    0.00 
 128   13:20   0.98   66.6    58    5.5   242    10.6   951.8    0.00 
 128   13:30   0.97   66.5    58    6.1   235    12.3   951.8    0.00 
 128   13:40   0.96   67.5    57    6.4   245    13.7   951.7    0.00 
 128   13:50   0.94   68.1    56    6.3   246    11.2   951.6    0.00 
 128   14:00   0.93   67.9    56    6.1   242    11.0   951.5    0.00 
 128   14:10   0.91   68.2    56    6.1   246    10.4   951.3    0.00 
 128   14:20   0.89   68.5    55    5.4   244    11.3   951.3    0.00 
 128   14:30   0.86   68.1    56    6.0   246    10.7   951.2    0.00 
 128   14:40   0.84   68.8    55    6.5   256    10.8   951.1    0.00 
 128   14:50   0.81   68.4    55    6.5   238    11.3   951.0    0.00 
 128   15:00   0.79   68.4    54    6.4   246    11.8   950.9    0.00 
 128   15:10   0.76   68.9    54    5.2   243     9.1   950.8    0.00 
 128   15:20   0.73   69.3    54    6.1   252    11.5   950.7    0.00 
 128   15:30   0.71   70.1    53    4.7   258     9.9   950.6    0.00 
 128   15:40   0.68   69.5    54    4.4   242     9.7   950.5    0.00 
 128   15:50   0.64   68.7    55    5.2   248     9.1   950.6    0.00 
 128   16:00   0.61   67.8    56    5.1   243     9.4   950.4    0.00 
 128   16:10   0.58   67.4    57    5.2   232     9.4   950.3    0.00 
 128   16:20   0.54   67.0    57    4.9   238     9.9   950.3    0.00 
 128   16:30   0.51   67.3    56    4.9   240     9.9   950.3    0.00 
 128   16:40   0.47   67.5    56    4.6   260     9.3   950.2    0.00 
 128   16:50   0.44   67.8    55    4.6   264     8.5   950.2    0.00 
 128   17:00   0.40   67.7    56    5.6   270     9.9   950.1    0.00 
 128   17:10   0.36   66.8    57    6.1   269     9.1   950.1    0.00 
 128   17:20   0.33   66.2    58    5.7   263     8.8   950.1    0.00 
 128   17:30   0.29   65.0    60    4.7   258     8.7   950.1    0.00 
 128   17:40   0.26   64.3    61    5.4   257     8.1   950.1    0.00 
 128   17:50   0.22   64.1    60    4.7   266     9.2   950.1    0.00 
 128   18:00   0.19   63.7    62    4.6   252     8.0   950.1    0.00 
 128   18:10   0.15   62.5    64    4.0   260     6.9   950.0    0.00 
 128   18:20   0.12   62.7    63    5.2   276     8.0   950.1    0.00 
 128   18:30   0.09   63.0    63    3.7   278     5.6   950.0    0.00 
 128   18:40   0.06   60.9    68    4.1   270     6.6   950.0    0.00 
 128   18:50   0.02   58.8    73    3.2   294     4.2   950.0    0.00 
 128   19:00   0.01   57.1    76    0.3    73     2.0   950.0    0.00 
 128   19:10   0.00   55.3    80    0.5    86     1.5   950.0    0.00 
 128   19:20   0.00   53.9    83    0.6   303     2.0   950.1    0.00 
 128   19:30   0.00   53.0    84    0.6   314     1.6   950.1    0.00 
 128   19:40   0.00   51.9    86    0.5    75     1.5   950.1    0.00 
 128   19:50   0.00   51.1    87    0.4   132     1.8   950.1    0.00 
 128   20:00   0.00   50.3    88    0.1    96     1.0   950.2    0.00 
 128   20:10   0.00   49.7    89    0.1    42     1.0   950.3    0.00 
 128   20:20   0.00   48.9    88    0.3   281     2.6   950.2    0.00 
 128   20:30   0.00   48.5    90    4.1   283     5.8   950.2    0.00 
 128   20:40   0.00   48.7    89    0.5   336     3.7   950.4    0.00 
 128   20:50   0.00   48.3    88    1.2   297     3.5   950.5    0.00 
 128   21:00   0.00   47.9    88    1.2    55     2.8   950.6    0.00 
 128   21:10   0.00   47.3    89    0.7   274     2.4   950.6    0.00 
 128   21:20   0.00   47.0    90    0.3   326     1.5   950.6    0.00 
 128   21:30   0.00   46.9    91    0.0   353     0.6   950.6    0.00 
 128   21:40   0.00   46.7    91    0.5    32     1.9   950.6    0.00 
 128   21:50   0.00   46.5    91    1.3   273     3.7   950.5    0.00 
 128   22:00   0.00   46.4    91    0.6    96     1.7   950.4    0.00 
 128   22:10   0.00   46.3    92    0.3   264     1.6   950.3    0.00 
 128   22:20   0.00   46.2    92    0.4   326     1.3   950.3    0.00 
 128   22:30   0.00   46.1    92    0.1   108     1.0   950.2    0.00 
 128   22:40   0.00   46.2    92    0.4    55     1.7   950.3    0.00 
 128   22:50   0.00   45.9    91    0.7    32     2.1   950.2    0.00 
 128   23:00   0.00   45.3    92    1.3   292     2.5   950.1    0.00 
 128   23:10   0.00   45.3    92    0.2   169     1.2   950.1    0.00 
 128   23:20   0.00   45.6    92    0.7    59     1.8   950.1    0.00 
 128   23:30   0.00   45.7    92    1.9    42     3.1   950.0    0.00 
 128   23:40   0.00   45.3    92    1.4   291     3.1   949.9    0.00 
 128   23:50   0.00   45.3    93    0.8    48     2.0   949.9    0.00 
 129    0:00   0.00   45.4    93    1.5   288     3.1   949.9    0.00 
 129    0:10   0.00   45.0    93    2.0    77     2.9   949.8    0.00 
 129    0:20   0.00   44.9    93    0.2    91     1.1   949.7    0.00 
 129    0:30   0.00   44.2    92    1.3   285     2.6   949.6    0.00 
 129    0:40   0.00   44.2    93    0.5   294     1.5   949.6    0.00 
 129    0:50   0.00   44.3    93    2.0    69     3.5   949.8    0.00 
 129    1:00   0.00   44.3    94    1.8    69     3.3   949.7    0.00 
 129    1:10   0.00   44.0    94    2.0   283     4.3   949.5    0.00 
 129    1:20   0.00   44.0    94    1.3   309     3.1   949.5    0.00 
 129    1:30   0.00   44.2    94    0.7    92     2.3   949.5    0.00 
 129    1:40   0.00   44.4    94    0.6   275     2.0   949.4    0.00 
 129    1:50   0.00   44.3    94    0.1   133     0.8   949.3    0.00 
 129    2:00   0.00   44.4    94    0.0   132     0.4   949.1    0.00 
 129    2:10   0.00   44.3    94    0.1   272     1.2   949.1    0.00 
 129    2:20   0.00   44.4    94    0.6   277     1.8   949.1    0.00 
 129    2:30   0.00   44.3    94    0.4    54     1.5   949.1    0.00 
 129    2:40   0.00   44.6    94    0.7    72     2.1   949.1    0.00 
 129    2:50   0.00   44.5    94    0.2   286     1.5   949.0    0.00 
 129    3:00   0.00   44.9    95    1.0   287     2.1   949.0    0.00 
 129    3:10   0.00   45.1    94    0.5   289     2.2   948.9    0.00 
 129    3:20   0.00   45.2    94    0.2    81     1.5   948.9    0.00 
 129    3:30   0.00   45.4    94    0.1    65     1.7   948.9    0.00 
 129    3:40   0.00   45.2    94    0.9    57     2.3   948.9    0.00 
 129    3:50   0.00   44.9    94    0.5   277     1.8   949.0    0.00 
 129    4:00   0.00   44.9    94    0.3    85     1.7   949.0    0.00 
 129    4:10   0.00   44.9    93    0.0   179     0.7   948.9    0.00 
 129    4:20   0.00   44.9    93    0.0    12     0.6   948.8    0.00 
 129    4:30   0.00   44.7    93    0.4   327     1.9   948.8    0.00 
 129    4:40   0.00   44.7    92    0.5    57     2.2   948.8    0.00 
 129    4:50   0.00   44.7    92    0.3    31     1.3   948.9    0.00 
 129    5:00   0.00   44.7    92    0.8    54     3.2   948.9    0.00 
 129    5:10   0.01   44.6    91    1.6   276     2.8   949.0    0.00 
 129    5:20   0.01   44.1    92    0.9    55     2.0   949.1    0.00 
 129    5:30   0.01   44.5    92    1.2    70     2.6   949.1    0.00 
 129    5:40   0.02   44.5    91    0.8   283     2.4   949.1    0.00 
 129    5:50   0.02   44.6    91    0.1    18     1.1   949.1    0.00 
 129    6:00   0.03   45.6    92    0.0    48     0.7   949.1    0.00 
 129    6:10   0.13   46.7    91    0.0     0     0.0   949.1    0.00 
 129    6:20   0.19   49.1    88    0.2    94     1.0   949.2    0.00 
 129    6:30   0.22   53.2    81    0.2    95     1.4   949.2    0.00 
 129    6:40   0.26   56.9    76    0.1    43     1.0   949.3    0.00 
 129    6:50   0.29   60.7    72    0.1    15     1.0   949.4    0.00 
 129    7:00   0.33   63.3    68    0.3   130     1.4   949.3    0.00 
 129    7:10   0.36   64.7    64    0.1   138     0.8   949.4    0.00 
 129    7:20   0.40   68.1    53    0.0   145     0.5   949.4    0.00 
 129    7:30   0.43   68.3    51    0.4   179     1.5   949.4    0.00 
 129    7:40   0.46   69.0    50    0.5   151     1.8   949.5    0.00 
 129    7:50   0.50   68.5    54    1.5   160     2.9   949.5    0.00 
 129    8:00   0.53   66.9    57    2.2   154     3.1   949.5    0.00 
 129    8:10   0.56   67.7    56    2.0   145     3.4   949.5    0.00 
 129    8:20   0.60   68.3    55    2.2   171     4.3   949.6    0.00 
 129    8:30   0.63   68.7    54    2.0   168     3.9   949.5    0.00 
 129    8:40   0.66   69.2    52    3.8   232     5.6   949.5    0.00 
 129    8:50   0.69   68.0    53    3.4   242     5.1   949.6    0.00 
 129    9:00   0.72   68.3    54    3.6   239     6.6   949.6    0.00 
 129    9:10   0.74   67.1    56    3.6   227     7.5   949.6    0.00 
 129    9:20   0.77   68.8    54    3.1   233     5.8   949.7    0.00 
 129    9:30   0.80   69.0    55    4.5   232     6.6   949.7    0.00 
 129    9:40   0.82   67.9    57    5.0   229     6.9   949.7    0.00 
 129    9:50   0.84   67.3    58    4.9   232     7.6   949.8    0.00 
 129   10:00   0.86   67.5    58    5.0   244     9.0   949.8    0.00 
 129   10:10   0.88   67.0    58    4.7   231     7.8   949.8    0.00 

Return to Blue Oak Ranch Reserve graphs page.


Western Regional Climate Center,wrcc@dri.edu